Time;durP1;ratioP1;P1;durP2;ratioP2;P2;SDS_P1;SDS_P2;PMS_P1;PMS_P2;Temp;Humidity;BMP_temperature;BMP_pressure;BME280_temperature;BME280_humidity;BME280_pressure;Samples;Min_cycle;Max_cycle;Signal;HPM_P1;HPM_P2
2021/06/28 00:01:57;;;;;;;7.00;5.55;;;;;;;17.44;100.00;96251.00;4971657;28;20066;-58
2021/06/28 00:04:25;;;;;;;6.05;5.45;;;;;;;17.16;100.00;96257.09;4968331;28;20078;-59
2021/06/28 00:06:54;;;;;;;5.47;4.85;;;;;;;17.13;100.00;96256.66;4967431;28;20043;-58
2021/06/28 00:09:22;;;;;;;7.82;5.00;;;;;;;17.21;100.00;96252.03;4963733;28;20062;-55
2021/06/28 00:11:50;;;;;;;7.30;5.10;;;;;;;17.22;100.00;96253.69;4968615;28;20074;-61
2021/06/28 00:14:19;;;;;;;7.47;5.28;;;;;;;17.07;100.00;96260.94;4966809;28;20070;-58
2021/06/28 00:16:49;;;;;;;5.97;5.05;;;;;;;17.03;100.00;96256.97;4966649;28;20139;-59
2021/06/28 00:19:17;;;;;;;7.88;5.65;;;;;;;17.00;100.00;96254.72;4968115;28;20070;-61
2021/06/28 00:21:46;;;;;;;7.55;5.88;;;;;;;17.03;100.00;96257.81;4966920;28;20062;-60
2021/06/28 00:24:14;;;;;;;6.25;5.65;;;;;;;17.04;100.00;96251.47;4964293;28;20058;-60
2021/06/28 00:26:42;;;;;;;6.53;5.10;;;;;;;17.13;100.00;96254.00;4965200;28;20598;-59
2021/06/28 00:29:11;;;;;;;6.20;5.60;;;;;;;17.06;100.00;96252.09;4965480;28;20097;-57
2021/06/28 00:31:39;;;;;;;6.43;5.25;;;;;;;16.99;100.00;96250.38;4970542;28;20101;-58
2021/06/28 00:34:09;;;;;;;6.65;5.30;;;;;;;17.05;100.00;96250.44;4966448;28;20078;-57
2021/06/28 00:36:37;;;;;;;5.93;4.82;;;;;;;17.01;100.00;96256.34;4970181;28;20078;-55
2021/06/28 00:39:06;;;;;;;6.15;5.25;;;;;;;16.92;100.00;96252.16;4961049;28;20520;-58
2021/06/28 00:41:34;;;;;;;5.30;4.65;;;;;;;16.85;100.00;96249.41;4951637;28;20062;-59
2021/06/28 00:44:02;;;;;;;5.97;5.20;;;;;;;16.73;100.00;96241.09;4966289;28;20077;-58
2021/06/28 00:46:31;;;;;;;5.95;5.35;;;;;;;16.69;100.00;96247.81;4970170;28;20086;-58
2021/06/28 00:48:59;;;;;;;7.03;5.45;;;;;;;16.69;100.00;96247.81;4962764;28;20355;-56
2021/06/28 00:51:29;;;;;;;6.78;4.72;;;;;;;16.59;100.00;96249.94;4949481;28;20431;-59
2021/06/28 00:53:57;;;;;;;10.75;5.20;;;;;;;16.68;100.00;96248.78;4963686;28;20081;-60
2021/06/28 00:56:26;;;;;;;7.72;5.40;;;;;;;16.66;100.00;96258.00;4965913;28;20070;-56
2021/06/28 00:58:57;;;;;;;5.20;4.70;;;;;;;16.69;100.00;96257.59;4965026;28;20108;-59
2021/06/28 01:01:25;;;;;;;5.72;4.78;;;;;;;16.51;100.00;96261.50;4962344;28;20078;-58
2021/06/28 01:03:54;;;;;;;5.25;4.70;;;;;;;16.33;100.00;96263.75;4970779;28;20074;-56
2021/06/28 01:06:22;;;;;;;7.57;4.90;;;;;;;16.09;100.00;96275.50;4962796;28;20058;-59
2021/06/28 01:08:52;;;;;;;5.72;4.82;;;;;;;16.23;100.00;96271.19;4965888;28;20038;-58
2021/06/28 01:11:20;;;;;;;8.45;4.93;;;;;;;16.22;100.00;96262.38;4964843;28;20472;-58
2021/06/28 01:13:50;;;;;;;6.40;4.45;;;;;;;16.31;100.00;96261.28;4968160;28;20090;-60
2021/06/28 01:16:19;;;;;;;5.60;5.00;;;;;;;16.29;100.00;96265.13;4968776;28;21234;-56
2021/06/28 01:18:47;;;;;;;5.20;4.70;;;;;;;16.22;100.00;96266.88;4967800;28;20070;-57
2021/06/28 01:21:18;;;;;;;6.20;4.47;;;;;;;16.12;100.00;96270.63;4958919;28;20043;-58
2021/06/28 01:23:49;;;;;;;7.72;5.28;;;;;;;16.31;100.00;96266.59;4957895;28;20078;-57
2021/06/28 01:26:17;;;;;;;5.95;5.38;;;;;;;16.30;100.00;96259.59;4961396;28;20065;-56
2021/06/28 01:28:46;;;;;;;5.88;5.20;;;;;;;16.38;100.00;96256.84;4965810;28;20105;-61
2021/06/28 01:31:14;;;;;;;5.53;4.47;;;;;;;16.49;100.00;96260.06;4969512;28;20117;-54
2021/06/28 01:33:43;;;;;;;5.88;5.15;;;;;;;16.52;100.00;96259.69;4965930;28;20059;-59
2021/06/28 01:36:11;;;;;;;5.38;4.88;;;;;;;16.70;100.00;96267.25;4968686;28;20085;-60
2021/06/28 01:38:39;;;;;;;6.15;4.93;;;;;;;16.75;100.00;96267.53;4966110;28;20074;-58
2021/06/28 01:41:09;;;;;;;5.32;4.80;;;;;;;16.82;100.00;96266.59;4965380;28;20082;-60
2021/06/28 01:43:37;;;;;;;5.30;4.65;;;;;;;16.82;100.00;96255.13;4963678;28;20082;-57
2021/06/28 01:46:06;;;;;;;5.55;4.85;;;;;;;16.95;100.00;96254.44;4968758;28;20070;-60
2021/06/28 01:48:36;;;;;;;9.05;5.15;;;;;;;16.70;100.00;96259.28;4964600;28;20070;-59
2021/06/28 01:51:05;;;;;;;;;;;;;;;16.77;100.00;96261.03;4963250;28;20536;-59
2021/06/28 01:53:33;;;;;;;5.97;4.55;;;;;;;16.82;100.00;96255.13;4963559;28;19953;-60
2021/06/28 01:56:05;;;;;;;4.85;4.35;;;;;;;16.75;100.00;96259.56;4969647;28;20066;-59
2021/06/28 01:58:35;;;;;;;5.25;4.35;;;;;;;16.46;100.00;96255.09;4965388;28;20083;-54
2021/06/28 02:01:06;;;;;;;4.90;4.40;;;;;;;16.49;100.00;96249.41;4958118;28;20248;-60
2021/06/28 02:03:37;;;;;;;4.55;4.15;;;;;;;16.62;100.00;96241.56;4962845;28;20063;-58
2021/06/28 02:06:06;;;;;;;5.03;4.18;;;;;;;16.77;100.00;96234.38;4958405;28;20070;-60
2021/06/28 02:08:35;;;;;;;5.15;4.32;;;;;;;16.93;100.00;96244.00;4953979;28;20066;-59
2021/06/28 02:11:06;;;;;;;7.15;4.45;;;;;;;17.06;100.00;96259.25;4966237;28;20050;-60
2021/06/28 02:13:37;;;;;;;5.78;4.10;;;;;;;17.17;100.00;96260.59;4965598;28;20112;-59
2021/06/28 02:16:06;;;;;;;4.72;4.10;;;;;;;17.16;100.00;96256.28;4968315;28;20051;-61
2021/06/28 02:18:35;;;;;;;4.75;4.25;;;;;;;17.19;100.00;96248.72;4963801;28;20070;-58
2021/06/28 02:21:04;;;;;;;5.00;4.00;;;;;;;17.15;100.00;96252.78;4968903;28;20067;-59
2021/06/28 02:23:35;;;;;;;6.32;3.70;;;;;;;17.14;100.00;96253.00;4963678;28;20098;-60
2021/06/28 02:26:05;;;;;;;4.63;3.95;;;;;;;17.07;100.00;96271.59;4965195;28;20082;-55
2021/06/28 02:28:36;;;;;;;7.25;3.90;;;;;;;16.86;100.00;96307.00;4965204;28;20075;-62
2021/06/28 02:31:06;;;;;;;4.70;3.90;;;;;;;16.71;100.00;96324.81;4965135;28;21406;-62
2021/06/28 02:33:37;;;;;;;6.07;3.70;;;;;;;16.77;100.00;96319.59;4943651;28;20476;-63
2021/06/28 02:36:06;;;;;;;6.28;4.00;;;;;;;16.88;100.00;96301.50;4943618;28;20111;-58
2021/06/28 02:38:35;;;;;;;4.50;4.10;;;;;;;16.97;100.00;96287.06;4953875;28;20090;-60
2021/06/28 02:41:05;;;;;;;6.75;4.57;;;;;;;16.99;100.00;96279.69;4964151;28;20077;-57
2021/06/28 02:43:33;;;;;;;7.07;4.70;;;;;;;17.04;100.00;96264.78;4984782;28;20071;-60
2021/06/28 02:46:04;;;;;;;6.70;4.47;;;;;;;17.15;100.00;96267.97;4964765;28;20311;-61
2021/06/28 02:48:32;;;;;;;7.45;4.35;;;;;;;17.05;100.00;96285.06;4969628;28;20066;-57
2021/06/28 02:51:00;;;;;;;6.38;4.22;;;;;;;16.75;100.00;96292.31;4968423;28;20078;-59
2021/06/28 02:53:29;;;;;;;7.38;4.70;;;;;;;16.87;100.00;96286.53;4966889;28;20073;-59
2021/06/28 02:56:12;;;;;;;8.85;4.65;;;;;;;16.97;100.00;96282.53;4963079;28;20067;-60
2021/06/28 02:58:41;;;;;;;6.18;4.60;;;;;;;16.94;100.00;96274.94;4950753;28;20102;-60
2021/06/28 03:01:11;;;;;;;5.88;5.25;;;;;;;16.93;100.00;96275.97;4970839;28;20476;-60
2021/06/28 03:03:39;;;;;;;8.95;4.78;;;;;;;16.85;100.00;96279.53;4971129;28;20071;-60
2021/06/28 03:06:08;;;;;;;6.28;5.07;;;;;;;16.73;100.00;96283.69;4967855;28;20081;-59
2021/06/28 03:08:36;;;;;;;8.30;5.28;;;;;;;16.71;100.00;96293.69;4965297;28;20074;-63
2021/06/28 03:11:05;;;;;;;7.68;5.55;;;;;;;16.82;100.00;96284.41;4957814;28;20547;-62
2021/06/28 03:13:34;;;;;;;7.50;5.13;;;;;;;16.91;100.00;96277.16;4967521;28;20082;-60
2021/06/28 03:16:03;;;;;;;6.07;5.10;;;;;;;16.83;100.00;96281.59;4966189;28;20474;-59
2021/06/28 03:18:33;;;;;;;6.90;5.45;;;;;;;16.74;100.00;96295.16;4967616;28;20090;-60
2021/06/28 03:21:02;;;;;;;6.53;5.90;;;;;;;16.59;100.00;96289.88;4968410;28;20074;-61
2021/06/28 03:23:30;;;;;;;6.72;5.38;;;;;;;16.69;100.00;96285.06;4968685;28;20066;-59
2021/06/28 03:25:59;;;;;;;6.80;5.50;;;;;;;16.73;100.00;96282.88;4965004;28;20070;-59
2021/06/28 03:28:28;;;;;;;5.97;5.22;;;;;;;16.72;100.00;96289.19;4969373;28;20135;-59
2021/06/28 03:30:56;;;;;;;7.57;6.05;;;;;;;16.77;100.00;96285.00;4963577;28;20453;-60
2021/06/28 03:33:25;;;;;;;5.85;5.28;;;;;;;16.68;100.00;96290.56;4972837;28;20081;-59
2021/06/28 03:35:54;;;;;;;6.22;5.63;;;;;;;16.54;100.00;96286.94;4967220;28;20071;-58
2021/06/28 03:38:23;;;;;;;7.65;5.75;;;;;;;16.46;100.00;96292.38;4964972;28;20070;-61
2021/06/28 03:40:51;;;;;;;6.60;5.55;;;;;;;16.42;100.00;96289.25;4970637;28;20529;-59
2021/06/28 03:43:20;;;;;;;9.65;6.15;;;;;;;16.50;100.00;96289.13;4968657;28;20086;-56
2021/06/28 03:45:48;;;;;;;15.65;5.93;;;;;;;16.49;100.00;96282.16;4968951;28;20561;-60
2021/06/28 03:48:16;;;;;;;7.93;5.85;;;;;;;16.58;100.00;96280.22;4963245;28;20066;-60
2021/06/28 03:50:52;;;;;;;11.15;5.68;;;;;;;16.65;100.00;96278.44;4968213;28;20066;-60
2021/06/28 03:53:22;;;;;;;8.45;5.38;;;;;;;16.50;100.00;96283.00;4967122;28;20065;-60
2021/06/28 03:55:50;;;;;;;11.38;5.00;;;;;;;16.60;100.00;96289.66;4968336;28;20465;-61
2021/06/28 03:58:19;;;;;;;6.15;4.95;;;;;;;17.58;100.00;96286.59;4971185;28;20094;-58
2021/06/28 04:00:47;;;;;;;7.15;4.80;;;;;;;19.29;100.00;96269.81;4966840;28;20134;-60
2021/06/28 04:03:16;;;;;;;5.05;4.00;;;;;;;19.63;100.00;96276.03;4952116;28;20450;-61
2021/06/28 04:05:44;;;;;;;4.65;4.15;;;;;;;20.23;100.00;96266.06;4958355;28;20059;-60
2021/06/28 04:08:13;;;;;;;4.80;3.80;;;;;;;20.10;100.00;96264.25;4966894;28;20062;-59
2021/06/28 04:10:42;;;;;;;5.07;3.80;;;;;;;20.54;100.00;96259.19;4966656;28;20109;-59
2021/06/28 04:13:11;;;;;;;7.20;3.90;;;;;;;19.24;100.00;96274.94;4966128;28;20191;-60
2021/06/28 04:15:39;;;;;;;4.95;4.13;;;;;;;20.20;100.00;96258.47;4967190;28;20070;-58
2021/06/28 04:18:08;;;;;;;4.47;4.05;;;;;;;21.09;100.00;96255.03;4967459;28;20074;-58
2021/06/28 04:20:37;;;;;;;5.32;3.90;;;;;;;21.81;100.00;96263.56;4965802;28;20513;-59
2021/06/28 04:23:06;;;;;;;5.20;3.63;;;;;;;22.44;100.00;96256.38;4955235;28;20529;-59
2021/06/28 04:25:35;;;;;;;4.43;3.50;;;;;;;22.24;100.00;96262.78;4953148;28;20086;-60
2021/06/28 04:28:05;;;;;;;5.53;3.50;;;;;;;22.85;100.00;96266.41;4951414;28;20326;-59
2021/06/28 04:30:34;;;;;;;3.70;3.33;;;;;;;23.37;100.00;96272.13;4962847;28;20478;-59
2021/06/28 04:33:02;;;;;;;6.97;3.65;;;;;;;24.07;100.00;96276.81;4969838;28;20065;-56
2021/06/28 04:35:31;;;;;;;3.95;3.55;;;;;;;24.53;100.00;96258.16;4966221;28;20142;-59
2021/06/28 04:38:00;;;;;;;3.42;3.13;;;;;;;24.95;100.00;96255.22;4968425;28;20077;-58
2021/06/28 04:40:30;;;;;;;4.07;3.15;;;;;;;24.79;100.00;96268.44;4966683;28;20093;-61
2021/06/28 04:42:59;;;;;;;3.33;2.95;;;;;;;24.30;100.00;96265.22;4972562;28;20438;-55
2021/06/28 04:45:29;;;;;;;3.58;3.10;;;;;;;23.13;100.00;96279.31;4966302;28;20070;-56
2021/06/28 04:47:58;;;;;;;3.25;2.95;;;;;;;23.61;100.00;96278.41;4967481;28;20062;-56
2021/06/28 04:50:26;;;;;;;3.35;2.80;;;;;;;24.17;100.00;96282.44;4966519;28;20077;-58
2021/06/28 04:52:56;;;;;;;4.82;3.35;;;;;;;24.08;100.00;96285.72;4970346;28;20477;-61
2021/06/28 04:55:25;;;;;;;5.05;3.20;;;;;;;25.33;100.00;96270.84;4967003;28;20105;-58
2021/06/28 04:57:55;;;;;;;6.25;3.00;;;;;;;24.31;100.00;96282.22;4967351;28;20074;-59
2021/06/28 05:00:24;;;;;;;;;;;;;;;26.48;100.00;96271.34;4963825;28;20074;-60
2021/06/28 05:02:54;;;;;;;3.92;2.95;;;;;;;25.45;100.00;96276.16;4965376;28;20427;-59
2021/06/28 05:05:22;;;;;;;4.82;2.88;;;;;;;26.16;100.00;96276.53;4957460;28;20067;-58
2021/06/28 05:07:52;;;;;;;4.97;3.00;;;;;;;26.49;100.00;96281.88;4947985;28;20163;-61
2021/06/28 05:10:20;;;;;;;3.22;2.92;;;;;;;25.98;100.00;96281.13;4973323;28;20081;-53
2021/06/28 05:12:49;;;;;;;4.15;2.80;;;;;;;27.56;100.00;96282.31;4963887;28;20066;-57
2021/06/28 05:15:17;;;;;;;3.35;2.83;;;;;;;27.35;98.15;96284.00;4964217;28;20520;-60
2021/06/28 05:17:47;;;;;;;3.45;2.83;;;;;;;25.69;100.00;96279.53;4966181;28;20085;-57
2021/06/28 05:20:17;;;;;;;5.63;3.08;;;;;;;25.27;100.00;96288.00;4967766;28;20075;-57
2021/06/28 05:22:46;;;;;;;5.03;3.10;;;;;;;26.40;100.00;96283.38;4963610;28;20085;-58
2021/06/28 05:25:14;;;;;;;3.58;2.90;;;;;;;26.10;100.00;96283.75;4964041;28;20078;-59
2021/06/28 05:27:43;;;;;;;4.05;2.80;;;;;;;25.66;100.00;96288.13;4951551;28;20075;-58
2021/06/28 05:30:14;;;;;;;4.70;2.75;;;;;;;26.32;100.00;96280.25;4961622;28;20457;-56
2021/06/28 05:32:43;;;;;;;4.32;2.45;;;;;;;26.91;100.00;96292.19;4963790;28;20066;-58
2021/06/28 05:35:12;;;;;;;3.45;2.78;;;;;;;26.76;100.00;96289.28;4971534;28;20079;-54
2021/06/28 05:37:42;;;;;;;4.57;2.60;;;;;;;26.93;100.00;96291.91;4964516;28;20085;-53
2021/06/28 05:40:10;;;;;;;;;;;;;;;27.40;97.93;96281.38;4965865;28;20494;-57
2021/06/28 05:42:40;;;;;;;4.20;3.00;;;;;;;27.13;100.00;96281.34;4964005;28;19972;-55
2021/06/28 05:45:10;;;;;;;5.38;2.72;;;;;;;26.57;100.00;96277.97;4961993;28;20047;-57
2021/06/28 05:47:40;;;;;;;4.10;2.60;;;;;;;27.02;100.00;96267.94;4963311;28;20081;-60
2021/06/28 05:50:13;;;;;;;4.88;3.08;;;;;;;26.83;100.00;96262.84;4964731;28;20479;-59
2021/06/28 05:52:43;;;;;;;3.80;3.08;;;;;;;25.26;100.00;96272.88;4962779;28;20085;-57
2021/06/28 05:55:13;;;;;;;5.40;2.75;;;;;;;25.37;100.00;96277.38;4970975;28;20078;-57
2021/06/28 05:57:41;;;;;;;3.83;2.88;;;;;;;24.84;100.00;96276.63;4945586;28;20067;-56
2021/06/28 06:00:13;;;;;;;4.43;3.00;;;;;;;24.45;100.00;96280.94;4945246;28;20090;-56
2021/06/28 06:02:41;;;;;;;3.78;2.92;;;;;;;24.81;100.00;96279.81;4955106;28;20089;-55
2021/06/28 06:05:11;;;;;;;5.15;3.20;;;;;;;24.89;100.00;96277.78;4963637;28;20074;-56
2021/06/28 06:07:40;;;;;;;3.72;3.00;;;;;;;25.38;100.00;96281.72;4964999;28;20085;-56
2021/06/28 06:10:12;;;;;;;7.65;3.30;;;;;;;24.62;100.00;96284.53;4973052;28;20084;-58
2021/06/28 06:12:40;;;;;;;5.43;3.20;;;;;;;23.79;100.00;96282.09;4952818;28;20082;-58
2021/06/28 06:15:14;;;;;;;8.18;3.47;;;;;;;24.45;100.00;96270.16;4965391;28;20074;-58
2021/06/28 06:17:43;;;;;;;3.95;3.33;;;;;;;24.07;100.00;96284.09;4970802;28;20468;-55
2021/06/28 06:20:12;;;;;;;6.63;3.40;;;;;;;23.53;100.00;96289.47;4966822;28;20105;-54
2021/06/28 06:22:40;;;;;;;4.57;3.50;;;;;;;23.10;100.00;96287.03;4961940;28;20094;-57
2021/06/28 06:25:11;;;;;;;6.03;3.42;;;;;;;23.36;100.00;96283.94;4971199;28;20902;-59
2021/06/28 06:27:40;;;;;;;5.53;3.28;;;;;;;22.63;100.00;96287.56;4962895;28;20082;-56
2021/06/28 06:30:11;;;;;;;5.35;3.97;;;;;;;23.02;100.00;96288.16;4965674;28;20062;-53
2021/06/28 06:32:48;;;;;;;5.20;3.85;;;;;;;23.00;100.00;96286.75;4973271;28;20066;-60
2021/06/28 06:35:20;;;;;;;5.65;3.30;;;;;;;23.06;100.00;96296.59;4976957;28;20077;-56
2021/06/28 06:37:50;;;;;;;4.20;3.50;;;;;;;23.42;100.00;96298.34;4970616;28;20066;-58
2021/06/28 06:40:20;;;;;;;4.35;3.80;;;;;;;23.08;100.00;96303.38;4969533;28;20062;-55
2021/06/28 06:42:48;;;;;;;6.85;3.67;;;;;;;23.37;100.00;96307.13;4972665;28;20061;-54
2021/06/28 06:45:17;;;;;;;5.38;3.60;;;;;;;23.37;100.00;96309.81;4957376;28;20079;-57
2021/06/28 06:47:45;;;;;;;6.53;3.47;;;;;;;23.57;100.00;96314.91;4960016;28;20074;-54
2021/06/28 06:50:16;;;;;;;5.68;3.63;;;;;;;23.86;100.00;96312.41;4969556;28;20120;-52
2021/06/28 06:52:46;;;;;;;4.40;3.50;;;;;;;23.56;100.00;96307.88;4968444;28;20540;-55
2021/06/28 06:55:14;;;;;;;;;;;;;;;23.68;100.00;96308.75;4970169;28;20085;-54
2021/06/28 06:57:44;;;;;;;4.28;3.65;;;;;;;24.38;100.00;96312.56;4972194;28;20026;-55
2021/06/28 07:00:14;;;;;;;;;;;;;;;24.13;100.00;96310.09;4967478;28;20054;-58
2021/06/28 07:02:42;;;;;;;4.10;3.40;;;;;;;24.16;100.00;96310.44;4973079;28;19978;-55
2021/06/28 07:05:11;;;;;;;3.92;3.38;;;;;;;24.39;100.00;96317.69;4968137;28;20039;-58
2021/06/28 07:07:40;;;;;;;5.20;3.63;;;;;;;23.93;100.00;96313.13;4968924;28;20522;-59
2021/06/28 07:10:10;;;;;;;6.82;3.53;;;;;;;24.81;100.00;96305.94;4975176;28;20078;-55
2021/06/28 07:12:39;;;;;;;5.82;3.67;;;;;;;24.73;100.00;96309.81;4969935;28;20058;-58
2021/06/28 07:15:11;;;;;;;4.53;3.45;;;;;;;24.61;100.00;96307.16;4971531;28;20061;-57
2021/06/28 07:17:41;;;;;;;5.95;3.50;;;;;;;23.88;100.00;96311.13;4966705;28;20062;-55
2021/06/28 07:20:12;;;;;;;3.50;3.20;;;;;;;24.04;100.00;96308.78;4963765;28;20073;-55
2021/06/28 07:22:40;;;;;;;4.00;3.28;;;;;;;24.54;100.00;96292.19;4942294;28;20083;-59
2021/06/28 07:25:12;;;;;;;3.78;3.35;;;;;;;24.09;100.00;96303.53;4964587;28;20101;-57
2021/06/28 07:27:40;;;;;;;5.05;3.08;;;;;;;24.13;100.00;96302.84;4972109;28;20062;-54
2021/06/28 07:30:12;;;;;;;4.97;3.30;;;;;;;24.15;100.00;96300.72;4965869;28;20063;-56
2021/06/28 07:32:41;;;;;;;4.70;3.03;;;;;;;24.35;100.00;96294.97;4970785;28;20058;-59
2021/06/28 07:35:12;;;;;;;3.50;2.97;;;;;;;24.25;100.00;96299.31;4971683;28;20469;-55
2021/06/28 07:37:41;;;;;;;4.70;2.90;;;;;;;24.48;100.00;96288.53;4969959;28;20520;-56
2021/06/28 07:40:12;;;;;;;3.20;2.90;;;;;;;24.29;100.00;96287.81;4964184;28;20085;-56
2021/06/28 07:42:41;;;;;;;5.60;3.30;;;;;;;24.51;100.00;96287.25;4961941;28;20062;-59
2021/06/28 07:45:13;;;;;;;3.85;3.13;;;;;;;24.37;100.00;96287.47;4966098;28;20074;-58
2021/06/28 07:47:42;;;;;;;5.25;2.80;;;;;;;24.69;100.00;96283.59;4956560;28;20062;-58
2021/06/28 07:50:11;;;;;;;5.30;3.20;;;;;;;24.72;100.00;96280.41;4959719;28;20066;-59
2021/06/28 07:52:40;;;;;;;4.15;3.22;;;;;;;24.80;100.00;96280.03;4965374;28;20097;-58
2021/06/28 07:55:11;;;;;;;4.95;3.10;;;;;;;24.63;100.00;96288.03;4971288;28;20110;-56
2021/06/28 07:57:40;;;;;;;3.97;3.45;;;;;;;25.29;100.00;96280.47;4965950;28;20062;-56
2021/06/28 08:00:12;;;;;;;3.78;3.05;;;;;;;25.02;100.00;96282.91;4965937;28;20073;-58
2021/06/28 08:02:40;;;;;;;3.30;3.00;;;;;;;25.38;100.00;96283.59;4966340;28;20082;-58
2021/06/28 08:05:12;;;;;;;4.93;3.17;;;;;;;25.48;100.00;96291.88;4970174;28;20083;-53
2021/06/28 08:07:41;;;;;;;3.33;3.03;;;;;;;25.27;100.00;96285.28;4966852;28;20082;-56
2021/06/28 08:10:12;;;;;;;5.30;3.03;;;;;;;25.25;100.00;96280.13;4975273;28;20771;-56
2021/06/28 08:12:41;;;;;;;8.13;3.50;;;;;;;25.15;100.00;96279.94;4967789;28;20071;-59
2021/06/28 08:15:15;;;;;;;5.32;3.30;;;;;;;25.36;100.00;96277.59;4969558;28;20066;-58
2021/06/28 08:17:43;;;;;;;4.28;3.33;;;;;;;25.27;100.00;96280.72;4955059;28;20071;-56
2021/06/28 08:20:13;;;;;;;3.75;3.45;;;;;;;25.27;100.00;96269.91;4954830;28;20074;-55
2021/06/28 08:22:43;;;;;;;4.57;3.33;;;;;;;25.46;100.00;96273.19;4966593;28;20093;-57
2021/06/28 08:25:12;;;;;;;5.10;3.60;;;;;;;26.15;100.00;96269.47;4970962;28;20074;-57
2021/06/28 08:27:40;;;;;;;3.55;3.20;;;;;;;25.67;100.00;96268.16;4966144;28;20085;-58
2021/06/28 08:30:12;;;;;;;3.63;3.13;;;;;;;25.65;100.00;96267.59;4970347;28;20055;-57
2021/06/28 08:32:41;;;;;;;3.60;3.28;;;;;;;25.51;100.00;96264.41;4965822;28;20070;-60
2021/06/28 08:35:10;;;;;;;3.35;3.00;;;;;;;25.67;100.00;96266.28;4967483;28;20066;-57
2021/06/28 08:37:38;;;;;;;6.05;3.15;;;;;;;26.16;100.00;96263.03;4965124;28;20105;-59
2021/06/28 08:40:09;;;;;;;9.00;3.17;;;;;;;26.08;100.00;96253.44;4951631;28;20090;-58
2021/06/28 08:42:38;;;;;;;4.50;3.28;;;;;;;26.40;100.00;96252.81;4967439;28;20070;-60
2021/06/28 08:45:08;;;;;;;3.42;3.05;;;;;;;26.79;100.00;96255.50;4962623;28;20067;-57
2021/06/28 08:47:38;;;;;;;3.40;2.92;;;;;;;26.96;100.00;96246.22;4966993;28;20079;-58
2021/06/28 08:50:09;;;;;;;3.83;2.80;;;;;;;26.83;100.00;96243.09;4964594;28;20481;-58
2021/06/28 08:52:40;;;;;;;3.72;2.95;;;;;;;27.06;100.00;96247.41;4962708;28;20086;-52
2021/06/28 08:55:10;;;;;;;3.17;2.88;;;;;;;26.79;100.00;96247.38;4970331;28;20082;-55
2021/06/28 08:57:39;;;;;;;4.68;2.60;;;;;;;27.39;100.00;96249.09;4971348;28;20070;-59
2021/06/28 09:00:09;;;;;;;2.75;2.47;;;;;;;26.60;100.00;96247.69;4965907;28;20513;-57
2021/06/28 09:02:43;;;;;;;4.22;2.70;;;;;;;26.88;100.00;96240.47;4965466;28;20081;-57
2021/06/28 09:05:12;;;;;;;4.70;2.90;;;;;;;27.33;100.00;96250.97;4963149;28;20050;-60
2021/06/28 09:07:40;;;;;;;2.90;2.70;;;;;;;27.20;100.00;96252.19;4966593;28;20097;-59
2021/06/28 09:10:33;;;;;;;2.90;2.60;;;;;;;27.47;100.00;96247.84;4967796;28;20086;-55
2021/06/28 09:13:02;;;;;;;5.63;2.30;;;;;;;27.33;100.00;96248.25;4965998;28;20320;-55
2021/06/28 09:15:36;;;;;;;3.65;2.40;;;;;;;27.59;97.47;96246.59;4962498;28;20074;-57
2021/06/28 09:18:24;;;;;;;3.25;2.30;;;;;;;27.84;100.00;96248.75;4969139;28;20073;-58
2021/06/28 09:21:04;;;;;;;5.22;3.00;;;;;;;27.92;100.00;96250.16;4964146;28;20162;-57
2021/06/28 09:23:33;;;;;;;3.90;3.08;;;;;;;27.90;100.00;96246.88;4963706;28;20082;-58
2021/06/28 09:26:02;;;;;;;3.13;2.58;;;;;;;27.91;100.00;96253.94;4966958;28;20079;-57
2021/06/28 09:28:36;;;;;;;3.10;2.42;;;;;;;27.32;100.00;96252.03;4969769;28;20082;-58
2021/06/28 09:31:05;;;;;;;3.22;2.60;;;;;;;27.58;100.00;96247.66;4938891;28;20313;-56
2021/06/28 09:33:35;;;;;;;2.88;2.50;;;;;;;27.79;100.00;96256.00;4963355;28;20461;-58
2021/06/28 09:36:18;;;;;;;2.53;2.33;;;;;;;27.81;99.75;96253.88;4965920;28;20073;-58
2021/06/28 09:38:46;;;;;;;2.15;2.05;;;;;;;28.06;96.72;96256.75;4959360;28;20781;-56
2021/06/28 09:41:26;;;;;;;3.08;2.00;;;;;;;27.91;88.97;96246.63;4952727;28;20473;-57
2021/06/28 09:44:01;;;;;;;1.90;1.80;;;;;;;28.32;83.51;96251.47;4968399;28;20082;-54
2021/06/28 09:46:29;;;;;;;1.70;1.60;;;;;;;27.77;81.58;96240.00;4970751;28;20069;-57
2021/06/28 09:49:00;;;;;;;1.77;1.67;;;;;;;27.91;81.21;96232.25;4971034;28;20569;-56
2021/06/28 09:51:31;;;;;;;2.83;1.60;;;;;;;28.01;84.29;96240.47;4966570;28;20460;-54
2021/06/28 09:54:15;;;;;;;3.55;1.90;;;;;;;28.18;79.77;96234.84;4993810;23;20097;-55
2021/06/28 09:56:45;;;;;;;1.60;1.50;;;;;;;28.00;70.12;96236.09;4970818;28;20074;-57
2021/06/28 09:59:26;;;;;;;2.33;1.80;;;;;;;28.19;71.51;96238.41;4968081;28;20067;-60
2021/06/28 10:02:11;;;;;;;1.65;1.50;;;;;;;28.29;66.08;96233.03;4966615;28;20078;-57
2021/06/28 10:04:45;;;;;;;2.42;1.50;;;;;;;28.06;70.40;96229.63;4954802;28;20480;-57
2021/06/28 10:07:19;;;;;;;1.98;1.60;;;;;;;28.83;69.94;96224.59;4947846;28;20082;-58
2021/06/28 10:09:47;;;;;;;3.30;1.60;;;;;;;29.00;68.53;96221.69;4954036;28;20075;-53
2021/06/28 10:12:20;;;;;;;1.77;1.40;;;;;;;28.24;64.35;96225.66;4949317;28;20086;-56
2021/06/28 10:14:49;;;;;;;1.50;1.40;;;;;;;28.93;63.56;96223.81;4950773;28;20067;-54
2021/06/28 10:17:17;;;;;;;2.95;1.50;;;;;;;28.84;65.16;96215.41;4952042;28;20063;-59
2021/06/28 10:19:47;;;;;;;2.90;1.60;;;;;;;28.69;65.64;96215.34;4953133;28;20086;-58
2021/06/28 10:22:15;;;;;;;1.92;1.73;;;;;;;28.93;69.76;96224.63;4949337;28;20090;-60
2021/06/28 10:24:44;;;;;;;12.18;2.42;;;;;;;28.62;68.55;96216.38;4951598;28;20075;-58
2021/06/28 10:27:12;;;;;;;2.03;1.70;;;;;;;29.27;66.53;96214.16;4952616;28;20070;-57
2021/06/28 10:29:41;;;;;;;2.85;1.80;;;;;;;29.06;66.82;96213.31;4954651;28;20070;-60
2021/06/28 10:32:12;;;;;;;1.95;1.80;;;;;;;28.97;70.06;96208.63;4946856;28;20140;-56
2021/06/28 10:34:41;;;;;;;2.25;1.70;;;;;;;28.87;67.02;96201.28;4955188;28;20102;-59
2021/06/28 10:37:33;;;;;;;1.90;1.75;;;;;;;29.17;71.45;96206.00;4958526;28;20108;-55
2021/06/28 10:40:03;;;;;;;1.88;1.65;;;;;;;29.14;65.89;96198.38;4946815;29;20470;-58
2021/06/28 10:42:33;;;;;;;2.42;1.70;;;;;;;28.93;62.43;96202.91;4948943;28;20063;-54
2021/06/28 10:45:02;;;;;;;2.83;2.00;;;;;;;29.05;64.05;96178.28;4949604;28;20067;-56
2021/06/28 10:47:35;;;;;;;2.10;1.90;;;;;;;29.27;65.68;96187.00;4952354;28;20077;-58
2021/06/28 10:50:04;;;;;;;3.38;1.88;;;;;;;29.32;67.00;96178.88;4950584;28;20067;-58
2021/06/28 10:52:50;;;;;;;2.25;1.95;;;;;;;29.03;61.50;96181.25;4950643;28;20079;-57
2021/06/28 10:55:38;;;;;;;2.00;1.77;;;;;;;28.93;59.68;96181.19;4950696;28;20550;-56
2021/06/28 10:58:25;;;;;;;2.00;1.80;;;;;;;29.04;55.94;96179.34;4947572;28;20143;-57
2021/06/28 11:00:54;;;;;;;2.13;1.90;;;;;;;28.86;55.13;96169.78;4950351;28;20473;-57
2021/06/28 11:03:34;;;;;;;1.90;1.80;;;;;;;28.93;56.86;96170.34;4943411;28;20074;-58
2021/06/28 11:06:24;;;;;;;2.10;1.90;;;;;;;28.84;57.13;96172.78;4949926;28;20063;-58
2021/06/28 11:09:06;;;;;;;2.90;1.88;;;;;;;29.39;61.22;96173.16;4946536;28;20067;-53
2021/06/28 11:11:56;;;;;;;1.90;1.67;;;;;;;29.67;53.35;96174.53;4951466;28;20074;-58
2021/06/28 11:14:42;;;;;;;1.92;1.67;;;;;;;29.08;59.70;96173.13;4950585;28;20070;-56
2021/06/28 11:17:12;;;;;;;3.33;1.95;;;;;;;29.18;64.39;96163.34;4951130;28;20075;-58
2021/06/28 11:19:49;;;;;;;2.85;1.70;;;;;;;29.36;60.72;96160.13;4945108;28;20083;-61
2021/06/28 11:22:31;;;;;;;1.70;1.60;;;;;;;29.10;58.92;96157.38;4952101;28;20568;-57
2021/06/28 11:25:04;;;;;;;2.10;1.90;;;;;;;29.21;60.36;96157.38;4947716;28;20677;-56
2021/06/28 11:27:32;;;;;;;3.42;2.08;;;;;;;29.30;62.37;96151.13;4950121;28;20073;-56
2021/06/28 11:30:00;;;;;;;2.67;1.65;;;;;;;29.61;57.24;96142.19;4944760;28;20514;-57
2021/06/28 11:32:30;;;;;;;1.80;1.70;;;;;;;29.45;51.53;96149.50;4952732;28;20062;-53
2021/06/28 11:35:00;;;;;;;2.33;1.70;;;;;;;29.69;52.32;96145.16;4947169;28;20078;-60
2021/06/28 11:37:31;;;;;;;3.15;1.90;;;;;;;29.60;49.57;96146.03;4950405;28;20086;-60
2021/06/28 11:40:03;;;;;;;2.10;1.80;;;;;;;29.68;50.59;96142.72;4950820;28;21569;-56
2021/06/28 11:42:33;;;;;;;1.95;1.70;;;;;;;29.79;47.44;96114.44;4951457;28;20493;-55